Time;durP1;ratioP1;P1;durP2;ratioP2;P2;SDS_P1;SDS_P2;PMS_P1;PMS_P2;Temp;Humidity;BMP_temperature;BMP_pressure;BME280_temperature;BME280_humidity;BME280_pressure;Samples;Min_cycle;Max_cycle;Signal;HPM_P1;HPM_P2
2023/05/04 00:00:15;;;;;;;27.40;12.65;;;;;;;;;;5034633;28;20033;-58
2023/05/04 00:02:42;;;;;;;24.80;11.80;;;;;;;;;;5039948;28;20033;-58
2023/05/04 00:05:09;;;;;;;29.35;13.32;;;;;;;;;;5038007;28;20042;-58
2023/05/04 00:07:35;;;;;;;28.92;13.57;;;;;;;;;;5039710;28;20029;-57
2023/05/04 00:10:01;;;;;;;25.33;13.02;;;;;;;;;;5039625;28;20036;-57
2023/05/04 00:12:28;;;;;;;27.38;13.15;;;;;;;;;;5043231;28;20040;-58
2023/05/04 00:14:54;;;;;;;32.90;13.88;;;;;;;;;;5040896;28;20045;-57
2023/05/04 00:17:20;;;;;;;30.05;13.55;;;;;;;;;;5037604;28;20056;-57
2023/05/04 00:19:47;;;;;;;32.65;15.45;;;;;;;;;;5036847;28;20048;-57
2023/05/04 00:22:13;;;;;;;29.00;14.45;;;;;;;;;;5037393;28;20041;-57
2023/05/04 00:24:39;;;;;;;36.70;14.35;;;;;;;;;;5033253;28;20068;-57
2023/05/04 00:27:05;;;;;;;32.78;14.90;;;;;;;;;;5033675;28;20042;-57
2023/05/04 00:29:31;;;;;;;35.17;15.25;;;;;;;;;;5047781;28;20033;-58
2023/05/04 00:31:57;;;;;;;34.53;16.15;;;;;;;;;;5034870;28;20056;-57
2023/05/04 00:34:24;;;;;;;35.40;15.30;;;;;;;;;;5042950;28;20403;-59
2023/05/04 00:36:50;;;;;;;37.15;16.33;;;;;;;;;;5045694;28;20039;-58
2023/05/04 00:39:16;;;;;;;37.38;16.60;;;;;;;;;;5037590;28;20037;-58
2023/05/04 00:41:44;;;;;;;41.85;17.23;;;;;;;;;;5037149;28;20050;-56
2023/05/04 00:44:10;;;;;;;41.80;17.45;;;;;;;;;;5042749;28;20053;-58
2023/05/04 00:46:36;;;;;;;50.42;20.75;;;;;;;;;;5036481;28;20037;-58
2023/05/04 00:49:04;;;;;;;53.58;21.83;;;;;;;;;;5036691;28;20037;-56
2023/05/04 00:51:31;;;;;;;50.45;21.30;;;;;;;;;;5040505;28;20494;-58
2023/05/04 00:53:57;;;;;;;53.15;21.05;;;;;;;;;;5039714;28;20051;-58
2023/05/04 00:56:24;;;;;;;47.50;19.75;;;;;;;;;;5036417;28;20047;-56
2023/05/04 00:58:56;;;;;;;59.03;22.65;;;;;;;;;;5036426;28;20045;-57
2023/05/04 01:01:23;;;;;;;57.22;22.85;;;;;;;;;;5038309;28;20425;-58
2023/05/04 01:03:50;;;;;;;55.10;22.08;;;;;;;;;;5019945;28;20105;-57
2023/05/04 01:06:40;;;;;;;62.58;24.50;;;;;;;;;;5037128;28;20538;-58
2023/05/04 01:09:21;;;;;;;;;;;;;;;;;;5040943;28;20037;-57
2023/05/04 01:12:07;;;;;;;62.30;24.45;;;;;;;;;;5045050;28;19919;-58
2023/05/04 01:14:35;;;;;;;67.63;23.33;;;;;;;;;;5043572;28;20029;-57
2023/05/04 01:17:06;;;;;;;68.55;24.55;;;;;;;;;;5038952;28;20049;-58
2023/05/04 01:19:32;;;;;;;71.82;26.48;;;;;;;;;;5036959;28;20399;-58
2023/05/04 01:21:59;;;;;;;67.40;25.75;;;;;;;;;;5045240;28;20037;-58
2023/05/04 01:24:27;;;;;;;69.68;25.70;;;;;;;;;;5040829;28;20491;-57
2023/05/04 01:27:21;;;;;;;72.22;25.98;;;;;;;;;;5041462;28;20523;-57
2023/05/04 01:30:04;;;;;;;72.60;26.77;;;;;;;;;;5034097;28;20033;-57
2023/05/04 01:32:32;;;;;;;55.50;24.23;;;;;;;;;;5041647;28;20045;-58
2023/05/04 01:34:58;;;;;;;59.25;24.05;;;;;;;;;;5039139;28;20041;-58
2023/05/04 01:37:24;;;;;;;61.63;22.63;;;;;;;;;;5050395;28;20036;-57
2023/05/04 01:39:51;;;;;;;55.88;23.55;;;;;;;;;;5032758;28;20053;-58
2023/05/04 01:42:17;;;;;;;51.00;21.80;;;;;;;;;;5044396;28;20046;-56
2023/05/04 01:44:43;;;;;;;44.85;19.83;;;;;;;;;;5045016;28;20411;-57
2023/05/04 01:47:09;;;;;;;50.55;21.83;;;;;;;;;;5052660;28;20037;-57
2023/05/04 01:49:36;;;;;;;44.15;20.98;;;;;;;;;;5042015;28;20043;-57
2023/05/04 01:52:02;;;;;;;42.83;20.58;;;;;;;;;;5047515;28;20041;-58
2023/05/04 01:54:29;;;;;;;42.47;19.23;;;;;;;;;;5044700;28;20044;-58
2023/05/04 01:56:55;;;;;;;40.70;19.33;;;;;;;;;;5042932;28;20040;-57
2023/05/04 01:59:21;;;;;;;42.20;18.98;;;;;;;;;;5038692;28;20052;-57
2023/05/04 02:01:47;;;;;;;43.00;18.67;;;;;;;;;;5043106;28;20025;-57
2023/05/04 02:04:13;;;;;;;35.13;17.45;;;;;;;;;;5038646;28;20038;-57
2023/05/04 02:06:40;;;;;;;34.17;17.42;;;;;;;;;;5040361;28;20040;-58
2023/05/04 02:09:06;;;;;;;31.02;16.65;;;;;;;;;;5043093;28;20053;-57
2023/05/04 02:11:32;;;;;;;30.45;17.02;;;;;;;;;;5042690;28;20037;-57
2023/05/04 02:13:58;;;;;;;33.08;17.23;;;;;;;;;;5045127;28;20533;-58
2023/05/04 02:16:24;;;;;;;35.78;16.85;;;;;;;;;;5039477;28;20502;-57
2023/05/04 02:18:51;;;;;;;32.22;16.70;;;;;;;;;;5040059;28;20042;-58
2023/05/04 02:21:17;;;;;;;33.53;17.70;;;;;;;;;;5040219;28;20041;-58
2023/05/04 02:23:43;;;;;;;30.15;16.55;;;;;;;;;;5038460;28;20053;-57
2023/05/04 02:26:10;;;;;;;31.75;15.88;;;;;;;;;;5033373;28;20403;-58
2023/05/04 02:28:36;;;;;;;31.48;17.13;;;;;;;;;;5033667;28;20502;-58
2023/05/04 02:31:02;;;;;;;27.25;15.63;;;;;;;;;;5039170;28;20052;-58
2023/05/04 02:33:28;;;;;;;30.20;16.38;;;;;;;;;;5038452;28;20414;-58
2023/05/04 02:35:54;;;;;;;28.58;16.08;;;;;;;;;;5035759;28;20049;-57
2023/05/04 02:38:20;;;;;;;30.42;17.45;;;;;;;;;;5036798;28;20045;-58
2023/05/04 02:40:46;;;;;;;31.75;17.92;;;;;;;;;;5037443;28;20434;-58
2023/05/04 02:43:13;;;;;;;30.27;17.08;;;;;;;;;;5039258;28;20049;-58
2023/05/04 02:45:39;;;;;;;31.90;17.05;;;;;;;;;;5038645;28;20033;-58
2023/05/04 02:48:05;;;;;;;28.77;16.30;;;;;;;;;;5043068;28;20045;-58
2023/05/04 02:50:32;;;;;;;29.75;17.23;;;;;;;;;;5038318;28;20040;-58
2023/05/04 02:52:58;;;;;;;30.20;16.65;;;;;;;;;;5037904;28;20057;-58
2023/05/04 02:55:24;;;;;;;33.72;17.85;;;;;;;;;;5040804;28;20034;-58
2023/05/04 02:57:50;;;;;;;30.67;16.98;;;;;;;;;;5040767;28;20060;-58
2023/05/04 03:00:17;;;;;;;33.25;18.52;;;;;;;;;;5043571;28;20435;-58
2023/05/04 03:02:43;;;;;;;31.52;18.17;;;;;;;;;;5033189;28;20499;-58
2023/05/04 03:05:09;;;;;;;31.20;17.00;;;;;;;;;;5038927;28;20050;-58
2023/05/04 03:07:35;;;;;;;28.90;17.08;;;;;;;;;;5045141;28;20033;-58
2023/05/04 03:10:02;;;;;;;32.45;17.85;;;;;;;;;;5042463;28;20041;-57
2023/05/04 03:12:28;;;;;;;29.98;16.48;;;;;;;;;;5045155;28;20052;-57
2023/05/04 03:14:55;;;;;;;32.25;17.00;;;;;;;;;;5037608;28;20523;-57
2023/05/04 03:17:21;;;;;;;26.35;15.35;;;;;;;;;;5038726;28;20045;-57
2023/05/04 03:19:47;;;;;;;28.73;16.45;;;;;;;;;;5041073;28;20053;-58
2023/05/04 03:22:13;;;;;;;30.45;16.58;;;;;;;;;;5031022;28;20037;-57
2023/05/04 03:24:39;;;;;;;29.23;17.08;;;;;;;;;;5032146;28;20045;-57
2023/05/04 03:27:06;;;;;;;31.70;16.85;;;;;;;;;;5034606;28;20034;-57
2023/05/04 03:29:35;;;;;;;25.63;15.47;;;;;;;;;;5032355;28;20043;-57
2023/05/04 03:32:01;;;;;;;25.30;15.05;;;;;;;;;;5043306;28;20515;-57
2023/05/04 03:34:28;;;;;;;25.95;16.33;;;;;;;;;;5035243;28;20035;-57
2023/05/04 03:36:59;;;;;;;28.38;15.35;;;;;;;;;;5045056;28;20391;-58
2023/05/04 03:39:25;;;;;;;25.80;15.40;;;;;;;;;;5040352;28;20036;-57
2023/05/04 03:41:52;;;;;;;27.20;15.75;;;;;;;;;;5046803;28;20044;-57
2023/05/04 03:44:19;;;;;;;26.05;15.50;;;;;;;;;;5044772;28;20029;-58
2023/05/04 03:46:45;;;;;;;24.05;14.55;;;;;;;;;;5043900;28;20036;-57
2023/05/04 03:49:12;;;;;;;26.00;15.15;;;;;;;;;;5045372;28;20048;-57
2023/05/04 03:51:38;;;;;;;26.02;15.65;;;;;;;;;;5044466;28;20068;-57
2023/05/04 03:54:05;;;;;;;25.58;15.27;;;;;;;;;;5045384;28;20418;-57
2023/05/04 03:56:31;;;;;;;25.33;15.68;;;;;;;;;;5036705;28;20063;-56
2023/05/04 03:58:57;;;;;;;24.65;14.68;;;;;;;;;;5041095;28;20411;-56
2023/05/04 04:01:28;;;;;;;27.33;15.38;;;;;;;;;;5041122;28;20379;-57
2023/05/04 04:03:54;;;;;;;27.63;15.85;;;;;;;;;;5040535;28;20052;-57
2023/05/04 04:06:21;;;;;;;36.42;20.17;;;;;;;;;;5039124;28;20060;-56
2023/05/04 04:08:47;;;;;;;32.22;18.95;;;;;;;;;;5040468;28;20070;-57
2023/05/04 04:11:14;;;;;;;28.90;16.85;;;;;;;;;;5037731;28;20040;-59
2023/05/04 04:13:40;;;;;;;26.58;15.25;;;;;;;;;;5038321;28;20048;-58
2023/05/04 04:16:06;;;;;;;25.40;15.20;;;;;;;;;;5039784;28;20053;-59
2023/05/04 04:18:32;;;;;;;36.88;19.05;;;;;;;;;;5034271;28;20053;-58
2023/05/04 04:20:58;;;;;;;27.85;16.23;;;;;;;;;;5039271;28;20387;-59
2023/05/04 04:23:26;;;;;;;26.35;14.20;;;;;;;;;;5037674;28;20590;-59
2023/05/04 04:25:52;;;;;;;24.52;14.80;;;;;;;;;;5031233;28;20041;-60
2023/05/04 04:28:19;;;;;;;25.42;14.60;;;;;;;;;;5036209;28;20033;-59
2023/05/04 04:30:45;;;;;;;24.58;13.93;;;;;;;;;;5031435;28;20057;-58
2023/05/04 04:33:11;;;;;;;23.63;14.25;;;;;;;;;;5041839;28;20036;-59
2023/05/04 04:35:37;;;;;;;24.70;13.63;;;;;;;;;;5045525;28;20044;-59
2023/05/04 04:38:03;;;;;;;21.15;13.43;;;;;;;;;;5044202;28;20040;-59
2023/05/04 04:40:30;;;;;;;23.83;13.82;;;;;;;;;;5043982;28;20058;-58
2023/05/04 04:42:56;;;;;;;22.40;13.35;;;;;;;;;;5044038;28;20033;-58
2023/05/04 04:45:22;;;;;;;24.15;14.15;;;;;;;;;;5042913;28;20037;-59
2023/05/04 04:47:48;;;;;;;22.05;13.45;;;;;;;;;;5043513;28;20060;-58
2023/05/04 04:50:14;;;;;;;24.77;13.45;;;;;;;;;;5042423;28;20037;-59
2023/05/04 04:52:41;;;;;;;25.52;13.73;;;;;;;;;;5045640;28;20033;-59
2023/05/04 04:55:07;;;;;;;20.38;12.68;;;;;;;;;;5044024;28;20041;-61
2023/05/04 04:57:33;;;;;;;24.05;13.45;;;;;;;;;;5044489;28;20045;-59
2023/05/04 05:00:00;;;;;;;25.92;13.00;;;;;;;;;;5040584;28;20387;-59
2023/05/04 05:02:29;;;;;;;24.08;13.10;;;;;;;;;;5043211;28;20040;-59
2023/05/04 05:04:55;;;;;;;24.60;14.50;;;;;;;;;;5042750;28;20033;-59
2023/05/04 05:07:21;;;;;;;22.55;13.05;;;;;;;;;;5042530;28;20399;-60
2023/05/04 05:09:47;;;;;;;23.05;13.25;;;;;;;;;;5038623;28;20041;-59
2023/05/04 05:12:15;;;;;;;22.77;13.02;;;;;;;;;;5043902;28;20056;-59
2023/05/04 05:14:42;;;;;;;23.45;13.43;;;;;;;;;;5044665;28;20041;-59
2023/05/04 05:17:09;;;;;;;23.33;13.27;;;;;;;;;;5045050;28;20044;-59
2023/05/04 05:19:36;;;;;;;23.52;13.45;;;;;;;;;;5040901;28;20032;-60
2023/05/04 05:22:05;;;;;;;22.83;12.45;;;;;;;;;;5040706;28;20029;-59
2023/05/04 05:24:31;;;;;;;20.10;11.88;;;;;;;;;;5044019;28;20052;-59
2023/05/04 05:26:57;;;;;;;24.08;13.57;;;;;;;;;;5041250;28;20048;-59
2023/05/04 05:29:24;;;;;;;24.10;13.68;;;;;;;;;;5042584;28;20368;-59
2023/05/04 05:31:50;;;;;;;28.70;14.40;;;;;;;;;;5051689;28;20044;-59
2023/05/04 05:34:17;;;;;;;27.33;14.00;;;;;;;;;;5050884;28;20049;-59
2023/05/04 05:36:43;;;;;;;26.83;15.57;;;;;;;;;;5049712;28;20033;-59
2023/05/04 05:39:10;;;;;;;25.42;15.25;;;;;;;;;;5047657;28;20061;-60
2023/05/04 05:41:36;;;;;;;24.70;15.20;;;;;;;;;;5049563;28;20045;-59
2023/05/04 05:44:03;;;;;;;22.73;14.30;;;;;;;;;;5049192;28;20033;-59
2023/05/04 05:46:29;;;;;;;27.60;15.50;;;;;;;;;;5048990;28;20033;-59
2023/05/04 05:48:55;;;;;;;28.10;15.77;;;;;;;;;;5046196;28;20416;-59
2023/05/04 05:51:21;;;;;;;29.17;16.20;;;;;;;;;;5047554;28;20033;-59
2023/05/04 05:53:47;;;;;;;26.35;16.27;;;;;;;;;;5047847;28;20032;-59
2023/05/04 05:56:13;;;;;;;28.30;15.85;;;;;;;;;;5046487;28;20041;-59
2023/05/04 05:58:40;;;;;;;27.52;16.10;;;;;;;;;;5045409;28;20533;-59
2023/05/04 06:01:06;;;;;;;28.00;15.80;;;;;;;;;;5043946;28;20053;-59
2023/05/04 06:03:32;;;;;;;26.30;14.80;;;;;;;;;;5048375;28;20048;-59
2023/05/04 06:05:58;;;;;;;26.83;14.27;;;;;;;;;;5049965;28;20036;-60
2023/05/04 06:08:25;;;;;;;25.90;15.52;;;;;;;;;;5043873;28;20052;-59
2023/05/04 06:10:51;;;;;;;28.60;15.10;;;;;;;;;;5043441;28;20055;-59
2023/05/04 06:13:17;;;;;;;25.08;14.32;;;;;;;;;;5047236;28;20045;-60
2023/05/04 06:15:53;;;;;;;26.88;14.38;;;;;;;;;;5043020;28;20115;-59
2023/05/04 06:18:19;;;;;;;26.38;14.80;;;;;;;;;;5041364;28;20131;-60
2023/05/04 06:20:45;;;;;;;28.75;14.60;;;;;;;;;;5041796;28;20110;-59
2023/05/04 06:23:13;;;;;;;23.90;13.57;;;;;;;;;;5042780;28;20048;-58
2023/05/04 06:25:40;;;;;;;22.73;13.38;;;;;;;;;;5041260;28;20495;-58
2023/05/04 06:28:06;;;;;;;27.40;13.20;;;;;;;;;;5047238;28;20502;-59
2023/05/04 06:30:32;;;;;;;26.27;13.95;;;;;;;;;;5047450;28;20071;-59
2023/05/04 06:32:58;;;;;;;23.63;14.13;;;;;;;;;;5050071;28;20040;-59
2023/05/04 06:35:25;;;;;;;19.05;12.43;;;;;;;;;;5048329;28;20040;-59
2023/05/04 06:37:51;;;;;;;23.00;13.05;;;;;;;;;;5048322;28;20418;-57
2023/05/04 06:40:17;;;;;;;24.80;12.70;;;;;;;;;;5047108;28;20037;-58
2023/05/04 06:42:43;;;;;;;19.65;12.18;;;;;;;;;;5048518;28;20025;-59
2023/05/04 06:45:10;;;;;;;21.17;12.48;;;;;;;;;;5046956;28;20048;-58
2023/05/04 06:47:37;;;;;;;19.85;12.38;;;;;;;;;;5047670;28;20025;-59
2023/05/04 06:50:10;;;;;;;19.00;12.18;;;;;;;;;;5043530;28;20510;-59
2023/05/04 06:52:38;;;;;;;20.02;13.07;;;;;;;;;;5047050;28;20029;-59
2023/05/04 06:55:06;;;;;;;21.73;12.90;;;;;;;;;;5045379;28;20033;-58
2023/05/04 06:57:32;;;;;;;24.48;12.80;;;;;;;;;;5044113;28;20024;-59
2023/05/04 06:59:59;;;;;;;18.85;11.73;;;;;;;;;;5042346;28;20045;-58
2023/05/04 07:02:25;;;;;;;19.50;12.38;;;;;;;;;;5045411;28;20025;-58
2023/05/04 07:04:51;;;;;;;19.38;11.90;;;;;;;;;;5044125;28;20045;-58
2023/05/04 07:07:18;;;;;;;19.80;12.10;;;;;;;;;;5044201;28;20044;-58
2023/05/04 07:09:46;;;;;;;20.13;12.38;;;;;;;;;;5039973;28;20037;-60
2023/05/04 07:12:13;;;;;;;20.40;12.15;;;;;;;;;;5045111;28;20537;-59
2023/05/04 07:14:39;;;;;;;18.52;12.15;;;;;;;;;;5042702;28;20032;-59
2023/05/04 07:17:07;;;;;;;19.67;11.63;;;;;;;;;;5042192;28;20387;-59
2023/05/04 07:19:33;;;;;;;19.80;12.40;;;;;;;;;;5038387;28;20033;-59
2023/05/04 07:21:59;;;;;;;25.25;11.77;;;;;;;;;;5037837;28;20499;-59
2023/05/04 07:24:28;;;;;;;18.25;12.15;;;;;;;;;;5042128;28;20045;-58
2023/05/04 07:26:55;;;;;;;21.23;12.43;;;;;;;;;;5038769;28;20404;-59
2023/05/04 07:29:21;;;;;;;18.10;12.18;;;;;;;;;;5046670;28;20028;-59
2023/05/04 07:31:48;;;;;;;16.58;11.35;;;;;;;;;;5047650;28;20033;-60
2023/05/04 07:34:14;;;;;;;18.58;11.07;;;;;;;;;;5048507;28;20040;-59
2023/05/04 07:36:40;;;;;;;18.25;12.73;;;;;;;;;;5046597;28;20422;-59
2023/05/04 07:39:06;;;;;;;21.92;12.88;;;;;;;;;;5045614;28;20030;-59
2023/05/04 07:41:32;;;;;;;18.10;11.75;;;;;;;;;;5047563;28;20043;-59
2023/05/04 07:43:59;;;;;;;17.83;12.10;;;;;;;;;;5046406;28;20529;-59
2023/05/04 07:46:25;;;;;;;19.15;12.77;;;;;;;;;;5046293;28;20036;-59
2023/05/04 07:48:51;;;;;;;16.90;10.57;;;;;;;;;;5043083;28;20029;-59
2023/05/04 07:51:18;;;;;;;10.57;7.53;;;;;;;;;;5044566;28;20045;-58
2023/05/04 07:53:44;;;;;;;13.75;8.80;;;;;;;;;;5045556;28;20033;-59
2023/05/04 07:56:11;;;;;;;7.13;5.93;;;;;;;;;;5044940;28;20033;-60
2023/05/04 07:58:38;;;;;;;11.40;6.35;;;;;;;;;;5042460;28;20037;-60
2023/05/04 08:01:04;;;;;;;8.63;6.15;;;;;;;;;;5040642;28;20064;-59
2023/05/04 08:03:31;;;;;;;9.52;5.40;;;;;;;;;;5043503;28;20055;-59
2023/05/04 08:05:57;;;;;;;7.93;6.15;;;;;;;;;;5042682;28;20052;-60
2023/05/04 08:08:24;;;;;;;10.32;6.55;;;;;;;;;;5041676;28;20545;-60
2023/05/04 08:10:50;;;;;;;8.90;6.13;;;;;;;;;;5041256;28;20050;-59
2023/05/04 08:13:16;;;;;;;8.70;5.57;;;;;;;;;;5043885;28;20053;-59
2023/05/04 08:15:43;;;;;;;7.05;5.47;;;;;;;;;;5041106;28;20049;-59
2023/05/04 08:18:09;;;;;;;8.77;5.93;;;;;;;;;;5040890;28;20049;-60
2023/05/04 08:20:36;;;;;;;9.05;5.28;;;;;;;;;;5039768;28;20025;-59
2023/05/04 08:23:02;;;;;;;8.88;5.70;;;;;;;;;;5039982;28;20033;-59
2023/05/04 08:25:29;;;;;;;7.00;5.72;;;;;;;;;;5038691;28;20037;-59
2023/05/04 08:27:55;;;;;;;6.50;5.10;;;;;;;;;;5049962;28;20052;-60
2023/05/04 08:30:22;;;;;;;7.07;5.60;;;;;;;;;;5046616;28;20040;-59
2023/05/04 08:32:50;;;;;;;9.50;5.40;;;;;;;;;;5047881;28;20040;-60
2023/05/04 08:35:16;;;;;;;7.40;5.70;;;;;;;;;;5047742;28;20040;-59
2023/05/04 08:37:42;;;;;;;6.60;4.80;;;;;;;;;;5044711;28;20067;-59
2023/05/04 08:40:08;;;;;;;9.15;5.43;;;;;;;;;;5042773;28;20049;-60
2023/05/04 08:42:35;;;;;;;6.78;5.53;;;;;;;;;;5046305;28;20052;-60
2023/05/04 08:45:01;;;;;;;5.78;4.68;;;;;;;;;;5045421;28;20056;-60
2023/05/04 08:47:28;;;;;;;6.68;5.03;;;;;;;;;;5044670;28;20045;-59
2023/05/04 08:49:55;;;;;;;5.50;4.82;;;;;;;;;;5045282;28;20041;-59
2023/05/04 08:52:25;;;;;;;6.55;4.90;;;;;;;;;;5046835;28;20044;-59
2023/05/04 08:54:55;;;;;;;5.88;4.90;;;;;;;;;;5044546;28;20391;-60
2023/05/04 08:57:22;;;;;;;6.05;4.80;;;;;;;;;;5040698;28;20044;-60
2023/05/04 08:59:52;;;;;;;6.18;4.88;;;;;;;;;;5043636;28;20120;-61
2023/05/04 09:02:21;;;;;;;5.68;4.85;;;;;;;;;;5046124;28;20045;-60
2023/05/04 09:04:51;;;;;;;6.15;5.20;;;;;;;;;;5048384;28;20032;-60
2023/05/04 09:07:19;;;;;;;6.88;4.78;;;;;;;;;;5045479;28;20048;-60
2023/05/04 09:09:47;;;;;;;8.88;4.82;;;;;;;;;;5030704;28;20037;-60
2023/05/04 09:12:13;;;;;;;5.25;4.35;;;;;;;;;;5047283;28;20124;-60
2023/05/04 09:14:43;;;;;;;6.72;5.40;;;;;;;;;;5044265;28;20049;-58
2023/05/04 09:17:15;;;;;;;6.10;4.95;;;;;;;;;;5042390;28;20375;-59
2023/05/04 09:19:43;;;;;;;6.47;5.03;;;;;;;;;;5040856;28;20037;-59
2023/05/04 09:22:16;;;;;;;5.28;4.20;;;;;;;;;;5046071;28;20060;-59
2023/05/04 09:24:43;;;;;;;6.07;4.55;;;;;;;;;;5041270;28;20041;-59
2023/05/04 09:27:10;;;;;;;5.70;4.65;;;;;;;;;;5049016;28;20045;-60
2023/05/04 09:29:38;;;;;;;6.75;4.32;;;;;;;;;;5049785;28;20571;-59
2023/05/04 09:32:05;;;;;;;6.18;4.43;;;;;;;;;;5049746;28;20406;-59
2023/05/04 09:34:32;;;;;;;5.50;4.18;;;;;;;;;;5047852;28;20056;-59
2023/05/04 09:37:00;;;;;;;5.68;4.40;;;;;;;;;;5047010;28;20024;-59
2023/05/04 09:39:27;;;;;;;7.15;4.00;;;;;;;;;;5048860;28;20029;-60
2023/05/04 09:41:54;;;;;;;5.55;4.20;;;;;;;;;;5049501;28;20060;-60
2023/05/04 09:44:21;;;;;;;5.32;4.00;;;;;;;;;;5047606;28;20048;-60
2023/05/04 09:46:55;;;;;;;7.72;4.78;;;;;;;;;;5045447;28;20043;-60
2023/05/04 09:49:35;;;;;;;5.28;4.40;;;;;;;;;;5046833;28;20060;-59
2023/05/04 09:52:05;;;;;;;5.50;4.35;;;;;;;;;;5047576;28;20040;-60
2023/05/04 09:54:40;;;;;;;5.82;3.95;;;;;;;;;;5044192;28;20029;-60
2023/05/04 09:57:12;;;;;;;4.88;4.32;;;;;;;;;;5047675;28;20041;-60
2023/05/04 09:59:39;;;;;;;4.65;4.00;;;;;;;;;;5044727;28;20533;-61
2023/05/04 10:02:06;;;;;;;7.57;4.50;;;;;;;;;;5045417;28;20033;-61
2023/05/04 10:04:38;;;;;;;5.07;4.57;;;;;;;;;;5041952;28;20033;-60
2023/05/04 10:07:05;;;;;;;6.22;3.90;;;;;;;;;;5042590;28;20046;-60
2023/05/04 10:09:33;;;;;;;5.70;4.40;;;;;;;;;;5043766;28;20044;-61
2023/05/04 10:12:04;;;;;;;7.60;4.78;;;;;;;;;;5047861;28;20049;-61
2023/05/04 10:14:34;;;;;;;5.63;4.00;;;;;;;;;;5043671;28;20037;-60
2023/05/04 10:17:24;;;;;;;6.03;4.15;;;;;;;;;;5040429;28;20495;-61
2023/05/04 10:20:18;;;;;;;7.97;5.15;;;;;;;;;;5040909;28;20034;-60
2023/05/04 10:22:53;;;;;;;6.25;4.47;;;;;;;;;;5038228;28;20052;-60
2023/05/04 10:25:59;;;;;;;6.00;4.60;;;;;;;;;;5050141;28;20424;-61
2023/05/04 10:28:53;;;;;;;4.72;4.15;;;;;;;;;;5042266;28;20044;-61
2023/05/04 10:31:20;;;;;;;6.07;3.95;;;;;;;;;;5049083;28;20044;-61
2023/05/04 10:33:46;;;;;;;5.47;3.78;;;;;;;;;;5049274;28;20037;-60
2023/05/04 10:36:12;;;;;;;6.55;3.53;;;;;;;;;;5048984;28;20526;-61
2023/05/04 10:38:39;;;;;;;5.20;4.47;;;;;;;;;;5048420;28;20060;-61
2023/05/04 10:41:19;;;;;;;6.15;4.40;;;;;;;;;;5049971;28;20052;-61
2023/05/04 10:43:50;;;;;;;5.63;4.30;;;;;;;;;;5045379;28;20047;-61
2023/05/04 10:46:21;;;;;;;5.38;4.20;;;;;;;;;;5044077;28;20046;-62
2023/05/04 10:48:48;;;;;;;6.65;4.97;;;;;;;;;;5046940;28;20032;-61
2023/05/04 10:51:24;;;;;;;9.00;4.75;;;;;;;;;;5045277;28;20055;-62
2023/05/04 10:53:51;;;;;;;5.72;4.70;;;;;;;;;;5043772;28;20029;-62
2023/05/04 10:56:24;;;;;;;7.30;4.88;;;;;;;;;;5045143;28;20409;-61
2023/05/04 10:58:50;;;;;;;6.32;5.07;;;;;;;;;;5051580;28;20041;-61
2023/05/04 11:01:17;;;;;;;5.53;4.65;;;;;;;;;;5043850;28;20087;-62
2023/05/04 11:03:44;;;;;;;5.55;4.70;;;;;;;;;;5046355;28;20049;-62
2023/05/04 11:06:21;;;;;;;5.03;4.32;;;;;;;;;;5042300;28;20518;-61
2023/05/04 11:08:58;;;;;;;6.68;4.47;;;;;;;;;;5039888;28;20049;-62
2023/05/04 11:11:25;;;;;;;7.43;4.80;;;;;;;;;;5038950;28;20048;-61
2023/05/04 11:13:51;;;;;;;4.88;4.35;;;;;;;;;;5043399;28;20045;-61
2023/05/04 11:16:25;;;;;;;7.28;5.13;;;;;;;;;;5044131;28;20045;-61
2023/05/04 11:19:06;;;;;;;5.30;4.63;;;;;;;;;;5040937;28;20037;-61
2023/05/04 11:21:32;;;;;;;6.00;4.70;;;;;;;;;;5042843;28;20033;-62
2023/05/04 11:23:59;;;;;;;7.35;4.97;;;;;;;;;;5049678;28;20039;-61
2023/05/04 11:26:27;;;;;;;6.38;5.05;;;;;;;;;;5048745;28;20056;-62
2023/05/04 11:28:53;;;;;;;6.50;4.85;;;;;;;;;;5046379;28;20467;-62
2023/05/04 11:31:20;;;;;;;5.13;4.15;;;;;;;;;;5047046;28;20042;-61
2023/05/04 11:33:53;;;;;;;5.28;4.47;;;;;;;;;;5047285;28;20426;-62
2023/05/04 11:36:21;;;;;;;7.25;4.28;;;;;;;;;;5046871;28;20041;-62
2023/05/04 11:38:48;;;;;;;5.13;4.50;;;;;;;;;;5046590;28;20029;-62
2023/05/04 11:41:14;;;;;;;8.20;4.60;;;;;;;;;;5043882;28;20418;-61
2023/05/04 11:43:44;;;;;;;7.28;5.32;;;;;;;;;;5046258;28;20037;-62
2023/05/04 11:46:10;;;;;;;6.88;5.80;;;;;;;;;;5048306;28;20033;-61
2023/05/04 11:48:37;;;;;;;7.00;5.15;;;;;;;;;;5044840;28;20049;-61
2023/05/04 11:51:04;;;;;;;6.45;4.95;;;;;;;;;;5042020;28;20037;-61
2023/05/04 11:53:40;;;;;;;6.57;5.43;;;;;;;;;;5045504;28;20048;-61
2023/05/04 11:56:09;;;;;;;8.00;5.72;;;;;;;;;;5043117;28;20064;-62
2023/05/04 11:58:36;;;;;;;9.73;5.30;;;;;;;;;;5046215;28;20049;-62
2023/05/04 12:01:03;;;;;;;5.45;4.65;;;;;;;;;;5039564;28;20033;-61
2023/05/04 12:03:40;;;;;;;7.68;6.28;;;;;;;;;;5043513;28;20029;-62
2023/05/04 12:06:06;;;;;;;9.38;5.68;;;;;;;;;;5043762;28;20377;-62
2023/05/04 12:08:40;;;;;;;7.90;5.63;;;;;;;;;;5039470;28;20045;-62
2023/05/04 12:11:33;;;;;;;8.43;5.78;;;;;;;;;;5042909;28;20052;-62
2023/05/04 12:14:12;;;;;;;11.50;5.85;;;;;;;;;;5046159;28;20044;-62
2023/05/04 12:16:39;;;;;;;5.40;4.45;;;;;;;;;;5038683;28;20483;-62
2023/05/04 12:19:11;;;;;;;7.55;6.20;;;;;;;;;;5040436;28;20044;-61
2023/05/04 12:21:56;;;;;;;6.05;5.28;;;;;;;;;;5042149;28;20048;-62
2023/05/04 12:24:23;;;;;;;5.70;5.03;;;;;;;;;;5048157;28;20033;-62
2023/05/04 12:26:50;;;;;;;10.02;5.40;;;;;;;;;;5048112;28;20049;-62
2023/05/04 12:29:16;;;;;;;7.25;6.10;;;;;;;;;;5047166;28;20052;-62
2023/05/04 12:31:42;;;;;;;7.95;5.57;;;;;;;;;;5046372;28;20434;-62
2023/05/04 12:34:08;;;;;;;8.85;6.82;;;;;;;;;;5045099;28;20403;-62
2023/05/04 12:36:35;;;;;;;9.15;6.07;;;;;;;;;;5046506;28;20033;-61
2023/05/04 12:39:01;;;;;;;8.18;5.10;;;;;;;;;;5046113;28;20021;-62
2023/05/04 12:41:27;;;;;;;7.18;5.50;;;;;;;;;;5044843;28;20356;-62
2023/05/04 12:43:53;;;;;;;5.80;5.18;;;;;;;;;;5045219;28;20029;-62
2023/05/04 12:46:20;;;;;;;7.25;5.68;;;;;;;;;;5044466;28;20037;-62
2023/05/04 12:48:46;;;;;;;8.68;5.38;;;;;;;;;;5045033;28;20391;-62
2023/05/04 12:51:12;;;;;;;7.22;5.97;;;;;;;;;;5045102;28;20067;-62
2023/05/04 12:53:39;;;;;;;7.28;5.35;;;;;;;;;;5046423;28;20051;-62
2023/05/04 12:56:06;;;;;;;10.20;5.95;;;;;;;;;;5041505;28;20050;-62
2023/05/04 12:58:32;;;;;;;12.73;6.13;;;;;;;;;;5043056;28;20032;-62
2023/05/04 13:00:58;;;;;;;7.13;5.15;;;;;;;;;;5041551;28;20422;-62
2023/05/04 13:03:25;;;;;;;5.60;4.82;;;;;;;;;;5041779;28;20052;-62
2023/05/04 13:05:51;;;;;;;7.38;5.10;;;;;;;;;;5039138;28;20025;-62
2023/05/04 13:08:18;;;;;;;7.63;5.55;;;;;;;;;;5041144;28;20053;-63
2023/05/04 13:10:45;;;;;;;8.30;5.50;;;;;;;;;;5041262;28;20036;-62
2023/05/04 13:13:14;;;;;;;5.82;5.22;;;;;;;;;;5052104;28;20036;-62
2023/05/04 13:15:40;;;;;;;7.53;5.47;;;;;;;;;;5042422;28;20036;-62
2023/05/04 13:18:07;;;;;;;7.05;5.70;;;;;;;;;;5039457;28;20037;-62
2023/05/04 13:20:33;;;;;;;10.57;5.50;;;;;;;;;;5038564;28;20929;-62
2023/05/04 13:22:59;;;;;;;7.43;6.00;;;;;;;;;;5045961;28;20045;-62
2023/05/04 13:25:25;;;;;;;11.35;5.57;;;;;;;;;;5047028;28;20053;-63
2023/05/04 13:27:52;;;;;;;8.88;5.78;;;;;;;;;;5045929;28;20033;-62
2023/05/04 13:30:20;;;;;;;6.47;5.70;;;;;;;;;;5045368;28;20623;-62
2023/05/04 13:32:47;;;;;;;6.05;5.18;;;;;;;;;;5049693;28;20078;-62
2023/05/04 13:35:15;;;;;;;7.90;5.57;;;;;;;;;;5047210;28;20506;-62
2023/05/04 13:37:41;;;;;;;8.98;5.88;;;;;;;;;;5050269;28;20045;-62
2023/05/04 13:40:08;;;;;;;9.27;5.65;;;;;;;;;;5048060;28;20048;-63
2023/05/04 13:42:34;;;;;;;8.38;4.78;;;;;;;;;;5048610;28;20037;-62
2023/05/04 13:45:01;;;;;;;7.20;5.05;;;;;;;;;;5045411;28;20060;-63
2023/05/04 13:47:27;;;;;;;5.53;4.80;;;;;;;;;;5048586;28;20033;-62
2023/05/04 13:49:54;;;;;;;9.95;5.70;;;;;;;;;;5047708;28;20029;-63
2023/05/04 13:52:20;;;;;;;5.40;4.72;;;;;;;;;;5047208;28;20044;-62
2023/05/04 13:54:46;;;;;;;6.57;4.75;;;;;;;;;;5043753;28;20038;-62
2023/05/04 13:57:12;;;;;;;7.32;4.90;;;;;;;;;;5044344;28;20048;-63
2023/05/04 13:59:39;;;;;;;7.50;5.20;;;;;;;;;;5045019;28;20124;-63
2023/05/04 14:02:06;;;;;;;5.63;5.13;;;;;;;;;;5045929;28;20064;-61
2023/05/04 14:04:32;;;;;;;5.63;5.00;;;;;;;;;;5045383;28;20059;-62
2023/05/04 14:06:58;;;;;;;7.82;5.30;;;;;;;;;;5044413;28;20502;-63
2023/05/04 14:09:25;;;;;;;5.45;4.60;;;;;;;;;;5043776;28;20045;-62
2023/05/04 14:11:51;;;;;;;6.03;4.40;;;;;;;;;;5049814;28;20044;-63
2023/05/04 14:14:17;;;;;;;8.80;4.38;;;;;;;;;;5044962;28;20056;-62
2023/05/04 14:16:43;;;;;;;6.90;4.85;;;;;;;;;;5039681;28;20021;-62
2023/05/04 14:19:10;;;;;;;5.18;3.97;;;;;;;;;;5040188;28;20053;-62
2023/05/04 14:21:36;;;;;;;5.47;4.35;;;;;;;;;;5053965;28;20406;-62
2023/05/04 14:24:03;;;;;;;4.40;4.00;;;;;;;;;;5049879;28;20033;-62
2023/05/04 14:26:33;;;;;;;5.40;4.18;;;;;;;;;;5049549;28;20037;-63
2023/05/04 14:29:00;;;;;;;5.40;4.13;;;;;;;;;;5041604;28;20034;-62
2023/05/04 14:31:27;;;;;;;6.30;4.15;;;;;;;;;;5046671;28;20045;-63